createdAt,value
2022-12-03T00:01:41.793Z,33.43
2022-12-03T00:04:13.023Z,29.20
2022-12-03T00:06:42.757Z,33.00
2022-12-03T00:09:12.581Z,32.33
2022-12-03T00:11:42.317Z,31.07
2022-12-03T00:14:12.214Z,36.27
2022-12-03T00:16:41.940Z,33.20
2022-12-03T00:19:11.685Z,35.00
2022-12-03T00:21:41.449Z,39.37
2022-12-03T00:24:11.777Z,35.06
2022-12-03T00:26:41.608Z,32.50
2022-12-03T00:29:11.714Z,32.73
2022-12-03T00:31:43.165Z,29.93
2022-12-03T00:34:13.246Z,38.02
2022-12-03T00:36:42.995Z,37.73
2022-12-03T00:39:12.743Z,38.13
2022-12-03T00:41:42.498Z,37.53
2022-12-03T00:44:12.272Z,38.93
2022-12-03T00:46:42.188Z,40.87
2022-12-03T00:49:12.059Z,38.57
2022-12-03T00:51:41.605Z,34.85
2022-12-03T00:54:12.071Z,35.22
2022-12-03T00:56:41.809Z,35.90
2022-12-03T00:59:11.876Z,39.23
2022-12-03T01:01:41.715Z,35.90
2022-12-03T01:04:11.677Z,37.93
2022-12-03T01:06:41.211Z,33.10
2022-12-03T01:09:10.945Z,37.03
2022-12-03T01:11:41.300Z,39.10
2022-12-03T01:14:14.000Z,39.76
2022-12-03T01:16:44.274Z,32.83
2022-12-03T01:19:15.919Z,33.13
2022-12-03T01:21:48.394Z,36.88
2022-12-03T01:24:20.470Z,42.07
2022-12-03T01:26:50.167Z,40.90
2022-12-03T01:29:19.931Z,38.70
2022-12-03T01:32:07.390Z,41.13
2022-12-03T01:34:37.134Z,40.83
2022-12-03T01:37:06.954Z,35.80
2022-12-03T01:39:36.798Z,37.53
2022-12-03T01:42:10.131Z,39.40
2022-12-03T01:44:41.706Z,37.23
2022-12-03T01:47:18.034Z,42.17
2022-12-03T01:49:50.843Z,38.97
2022-12-03T01:52:23.623Z,38.23
2022-12-03T01:55:02.058Z,40.95
2022-12-03T01:57:37.443Z,40.40
2022-12-03T02:00:15.534Z,39.00
2022-12-03T02:02:46.158Z,42.23
2022-12-03T02:05:33.156Z,43.83
2022-12-03T02:08:03.213Z,36.53
2022-12-03T02:10:37.530Z,36.40
2022-12-03T02:13:09.772Z,43.67
2022-12-03T02:15:41.315Z,38.47
2022-12-03T02:18:11.939Z,40.70
2022-12-03T02:20:50.362Z,34.27
2022-12-03T02:23:23.224Z,41.00
2022-12-03T02:25:53.470Z,45.88
2022-12-03T02:28:23.085Z,40.70
2022-12-03T02:30:52.915Z,41.53
2022-12-03T02:33:22.688Z,44.00
2022-12-03T02:35:52.570Z,42.80
2022-12-03T02:38:25.979Z,41.17
2022-12-03T02:40:59.032Z,41.90
2022-12-03T02:43:28.669Z,40.50
2022-12-03T02:46:01.132Z,48.00
2022-12-03T02:48:34.037Z,38.47
2022-12-03T02:54:38.130Z,40.50
2022-12-03T02:57:08.209Z,46.97
2022-12-03T02:59:38.101Z,43.53
2022-12-03T03:02:10.170Z,39.53
2022-12-03T03:04:40.884Z,40.53
2022-12-03T03:07:11.348Z,41.50
2022-12-03T03:09:41.676Z,39.80
2022-12-03T03:12:12.456Z,42.22
2022-12-03T03:14:42.331Z,39.43
2022-12-03T03:17:12.340Z,39.93
2022-12-03T03:19:42.886Z,42.83
2022-12-03T03:22:13.129Z,37.90
2022-12-03T03:24:42.939Z,42.10
2022-12-03T03:27:12.765Z,41.43
2022-12-03T03:29:42.509Z,44.20
2022-12-03T03:32:13.089Z,47.33
2022-12-03T03:34:42.955Z,42.13
2022-12-03T03:37:12.976Z,43.03
2022-12-03T03:39:42.718Z,44.27
2022-12-03T03:42:12.848Z,46.28
2022-12-03T03:44:42.817Z,46.37
2022-12-03T03:47:12.924Z,40.80
2022-12-03T03:49:43.216Z,42.40
2022-12-03T03:52:13.305Z,41.65
2022-12-03T03:54:43.201Z,38.70
2022-12-03T03:57:13.283Z,40.23
2022-12-03T03:59:43.170Z,40.37
2022-12-03T04:02:24.655Z,44.37
2022-12-03T04:04:55.382Z,40.40
2022-12-03T04:07:25.374Z,37.03
2022-12-03T04:09:55.172Z,38.53
2022-12-03T04:12:42.523Z,36.83
2022-12-03T04:15:11.975Z,38.30
2022-12-03T04:17:41.707Z,36.33
2022-12-03T04:20:13.489Z,35.23
2022-12-03T04:22:43.541Z,38.88
2022-12-03T04:25:30.621Z,35.15
2022-12-03T04:28:19.830Z,34.00
2022-12-03T04:30:49.947Z,35.92
2022-12-03T04:33:37.749Z,35.73
2022-12-03T04:36:10.225Z,37.50
2022-12-03T04:38:39.981Z,38.80
2022-12-03T04:41:10.049Z,42.03
2022-12-03T04:43:41.512Z,39.90
2022-12-03T04:46:11.749Z,38.25
2022-12-03T04:48:41.766Z,38.28
2022-12-03T04:51:11.817Z,41.53
2022-12-03T04:53:46.032Z,41.10
2022-12-03T04:56:12.401Z,43.45
2022-12-03T04:58:42.220Z,39.50
2022-12-03T05:01:12.106Z,38.20
2022-12-03T05:03:41.851Z,35.63
2022-12-03T05:06:11.742Z,42.37
2022-12-03T05:08:41.499Z,38.77
2022-12-03T05:11:12.875Z,39.03
2022-12-03T05:13:43.271Z,40.70
2022-12-03T05:16:13.213Z,38.80
2022-12-03T05:18:42.948Z,41.30
2022-12-03T05:21:13.075Z,41.05
2022-12-03T05:23:43.911Z,38.67
2022-12-03T05:26:13.432Z,41.57
2022-12-03T05:28:43.184Z,40.90
2022-12-03T05:31:13.138Z,40.67
2022-12-03T05:33:44.509Z,42.80
2022-12-03T05:36:14.503Z,37.73
2022-12-03T05:38:44.333Z,40.40
2022-12-03T05:41:31.579Z,41.07
2022-12-03T05:44:01.670Z,43.80
2022-12-03T05:46:32.523Z,41.17
2022-12-03T05:49:02.552Z,37.40
2022-12-03T05:51:32.371Z,42.80
2022-12-03T05:54:02.120Z,41.23
2022-12-03T05:56:31.879Z,44.63
2022-12-03T05:59:01.681Z,40.77
2022-12-03T06:01:31.394Z,40.63
2022-12-03T06:04:01.267Z,40.90
2022-12-03T06:06:31.118Z,42.17
2022-12-03T06:09:01.039Z,47.97
2022-12-03T06:11:32.562Z,42.70
2022-12-03T06:14:02.902Z,45.90
2022-12-03T06:16:32.867Z,41.60
2022-12-03T06:19:02.652Z,45.83
2022-12-03T06:21:32.412Z,49.10
2022-12-03T06:24:02.197Z,43.27
2022-12-03T06:26:31.934Z,50.73
2022-12-03T06:29:01.688Z,48.77
2022-12-03T06:31:31.500Z,45.20
2022-12-03T06:34:01.214Z,42.65
2022-12-03T06:36:31.129Z,42.83
2022-12-03T06:39:00.864Z,44.40
2022-12-03T06:41:30.624Z,41.93
2022-12-03T06:44:00.924Z,42.08
2022-12-03T06:46:30.879Z,44.67
2022-12-03T06:49:01.054Z,41.37
2022-12-03T06:51:30.511Z,37.38
2022-12-03T06:54:00.264Z,37.23
2022-12-03T06:56:35.850Z,39.00
2022-12-03T06:59:01.930Z,37.00
2022-12-03T07:01:31.726Z,44.10
2022-12-03T07:04:01.182Z,41.30
2022-12-03T07:06:31.035Z,41.27
2022-12-03T07:09:00.876Z,45.13
2022-12-03T07:11:33.306Z,42.93
2022-12-03T07:14:05.773Z,46.23
2022-12-03T07:16:36.867Z,38.03
2022-12-03T07:19:07.643Z,41.67
2022-12-03T07:21:37.543Z,48.43
2022-12-03T07:24:09.829Z,43.86
2022-12-03T07:26:39.587Z,44.77
2022-12-03T07:29:09.326Z,39.80
2022-12-03T07:31:39.148Z,47.57
2022-12-03T07:34:11.114Z,49.65
2022-12-03T07:36:40.924Z,53.63
2022-12-03T07:39:10.767Z,47.43
2022-12-03T07:41:40.639Z,46.63
2022-12-03T07:44:14.690Z,51.30
2022-12-03T07:46:44.702Z,46.28
2022-12-03T07:49:14.812Z,48.95
2022-12-03T07:51:46.260Z,46.37
2022-12-03T07:54:16.052Z,41.25
2022-12-03T07:56:45.798Z,48.10
2022-12-03T07:59:16.338Z,49.37
2022-12-03T08:01:46.703Z,41.13
2022-12-03T08:04:17.884Z,44.90
2022-12-03T08:06:48.127Z,44.90
2022-12-03T08:09:17.971Z,45.57
2022-12-03T08:11:49.905Z,55.13
2022-12-03T08:14:21.291Z,53.83
2022-12-03T08:16:51.569Z,48.77
2022-12-03T08:19:22.798Z,60.38
2022-12-03T08:21:57.978Z,59.27
2022-12-03T08:24:24.141Z,67.62
2022-12-03T08:26:53.924Z,60.20
2022-12-03T08:29:23.688Z,63.20
2022-12-03T08:31:55.586Z,64.37
2022-12-03T08:34:28.203Z,65.57
2022-12-03T08:37:01.010Z,63.23
2022-12-03T08:39:33.819Z,71.53
2022-12-03T08:42:29.826Z,68.43
2022-12-03T08:45:02.701Z,64.60
2022-12-03T08:47:32.772Z,77.50
2022-12-03T08:50:05.563Z,70.13
2022-12-03T08:52:36.073Z,65.25
2022-12-03T08:55:30.012Z,71.35
2022-12-03T08:58:00.480Z,65.63
2022-12-03T09:00:30.424Z,56.90
2022-12-03T09:03:01.753Z,55.90
2022-12-03T09:05:35.117Z,66.07
2022-12-03T09:08:06.638Z,61.00
2022-12-03T09:10:36.374Z,56.63
2022-12-03T09:13:06.196Z,49.90
2022-12-03T09:15:35.967Z,53.37
2022-12-03T09:18:06.759Z,58.33
2022-12-03T09:20:36.512Z,52.13
2022-12-03T09:23:06.265Z,50.47
2022-12-03T09:25:36.297Z,59.73
2022-12-03T09:28:08.249Z,49.07
2022-12-03T09:30:38.039Z,44.00
2022-12-03T09:33:07.884Z,52.97
2022-12-03T09:35:37.724Z,52.47
2022-12-03T09:38:08.451Z,44.10
2022-12-03T09:40:39.064Z,41.60
2022-12-03T09:43:09.179Z,46.13
2022-12-03T09:45:39.314Z,50.25
2022-12-03T09:48:12.461Z,52.08
2022-12-03T09:50:43.639Z,52.03
2022-12-03T09:53:22.226Z,55.67
2022-12-03T09:55:52.295Z,46.30
2022-12-03T09:58:23.065Z,52.93
2022-12-03T10:00:53.577Z,47.40
2022-12-03T10:03:29.885Z,59.55
2022-12-03T10:05:58.672Z,55.15
2022-12-03T10:08:32.999Z,55.47
2022-12-03T10:11:02.812Z,47.70
2022-12-03T10:13:35.447Z,51.35
2022-12-03T10:16:08.139Z,54.47
2022-12-03T10:18:41.749Z,62.87
2022-12-03T10:21:20.285Z,59.03
2022-12-03T10:23:55.106Z,50.27
2022-12-03T10:26:25.026Z,64.50
2022-12-03T10:28:56.498Z,60.03
2022-12-03T10:31:29.361Z,56.10
2022-12-03T10:34:02.733Z,60.27
2022-12-03T10:36:33.176Z,61.93
2022-12-03T10:39:17.153Z,60.07
2022-12-03T10:41:47.558Z,56.20
2022-12-03T10:44:22.708Z,50.67
2022-12-03T10:47:11.375Z,52.67
2022-12-03T10:49:42.709Z,48.50
2022-12-03T10:52:22.584Z,55.33
2022-12-03T10:54:51.064Z,58.80
2022-12-03T10:57:21.329Z,50.43
2022-12-03T10:59:51.400Z,46.77
2022-12-03T11:02:23.478Z,48.25
2022-12-03T11:04:54.199Z,47.43
2022-12-03T11:07:26.061Z,53.58
2022-12-03T11:09:55.809Z,51.50
2022-12-03T11:12:28.270Z,45.67
2022-12-03T11:15:01.269Z,51.83
2022-12-03T11:17:42.686Z,45.97
2022-12-03T11:20:28.106Z,47.00
2022-12-03T11:22:59.472Z,43.73
2022-12-03T11:25:32.349Z,53.07
2022-12-03T11:28:17.314Z,46.70
2022-12-03T11:30:54.457Z,48.93
2022-12-03T11:33:26.607Z,47.33
2022-12-03T11:36:08.488Z,52.83
2022-12-03T11:38:53.372Z,55.00
2022-12-03T11:41:30.563Z,60.90
2022-12-03T11:44:03.908Z,56.63
2022-12-03T11:46:43.042Z,52.27
2022-12-03T11:49:35.718Z,49.20
2022-12-03T11:52:25.725Z,51.83
2022-12-03T11:55:04.606Z,51.77
2022-12-03T11:57:37.701Z,47.35
2022-12-03T12:00:11.612Z,57.93
2022-12-03T12:02:44.738Z,51.08
2022-12-03T12:05:35.511Z,55.78
2022-12-03T12:08:08.594Z,51.00
2022-12-03T12:10:43.820Z,55.20
2022-12-03T12:13:34.902Z,53.77
2022-12-03T12:16:08.443Z,51.67
2022-12-03T12:18:54.855Z,52.30
2022-12-03T12:21:49.901Z,48.83
2022-12-03T12:24:42.529Z,56.02
2022-12-03T12:27:18.481Z,54.42
2022-12-03T12:29:56.404Z,55.00
2022-12-03T12:32:32.558Z,50.85
2022-12-03T12:35:05.048Z,44.20
2022-12-03T12:37:38.186Z,58.05
2022-12-03T12:40:15.787Z,47.53
2022-12-03T12:45:18.793Z,43.23
2022-12-03T12:48:00.672Z,42.47
2022-12-03T12:50:33.098Z,44.85
2022-12-03T12:53:22.291Z,51.13
2022-12-03T12:56:03.094Z,48.45
2022-12-03T12:58:34.189Z,45.10
2022-12-03T13:01:07.258Z,48.35
2022-12-03T13:03:40.220Z,47.55
2022-12-03T13:06:15.553Z,54.80
2022-12-03T13:08:48.228Z,55.23
2022-12-03T13:11:36.865Z,56.03
2022-12-03T13:16:54.167Z,57.73
2022-12-03T13:19:31.900Z,47.50
2022-12-03T13:22:12.978Z,54.30
2022-12-03T13:24:47.591Z,55.70
2022-12-03T13:27:25.560Z,57.87
2022-12-03T13:30:04.281Z,49.80
2022-12-03T13:32:36.998Z,59.50
2022-12-03T13:35:27.033Z,57.40
2022-12-03T13:37:58.656Z,57.90
2022-12-03T13:40:31.294Z,58.13
2022-12-03T13:43:02.658Z,54.03
2022-12-03T13:45:40.934Z,62.57
2022-12-03T13:48:26.613Z,64.72
2022-12-03T13:50:58.487Z,57.90
2022-12-03T13:53:37.122Z,61.67
2022-12-03T13:56:24.917Z,59.53
2022-12-03T13:58:54.874Z,57.13
2022-12-03T14:01:24.721Z,55.83
2022-12-03T14:03:54.920Z,60.65
2022-12-03T14:06:26.058Z,63.48
2022-12-03T14:08:55.802Z,66.87
2022-12-03T14:11:43.208Z,54.27
2022-12-03T14:14:14.119Z,62.16
2022-12-03T14:16:43.910Z,61.57
2022-12-03T14:19:14.154Z,66.97
2022-12-03T14:21:43.980Z,61.20
2022-12-03T14:24:13.540Z,67.43
2022-12-03T14:26:43.309Z,61.30
2022-12-03T14:29:13.115Z,64.97
2022-12-03T14:31:42.959Z,60.47
2022-12-03T14:34:12.422Z,64.30
2022-12-03T14:36:42.232Z,68.67
2022-12-03T14:39:12.195Z,62.57
2022-12-03T14:41:59.582Z,69.37
2022-12-03T14:44:29.364Z,68.77
2022-12-03T14:46:59.116Z,91.93
2022-12-03T14:49:29.139Z,59.77
2022-12-03T14:52:02.112Z,61.33
2022-12-03T14:54:32.757Z,65.93
2022-12-03T14:57:02.679Z,68.00
2022-12-03T14:59:32.443Z,82.17
2022-12-03T15:02:02.072Z,79.00
2022-12-03T15:04:32.125Z,63.63
2022-12-03T15:07:02.220Z,58.42
2022-12-03T15:09:31.996Z,89.73
2022-12-03T15:12:01.847Z,71.77
2022-12-03T15:14:31.736Z,60.30
2022-12-03T15:17:01.624Z,65.00
2022-12-03T15:19:31.414Z,59.90
2022-12-03T15:22:01.167Z,60.13
2022-12-03T15:24:31.310Z,68.78
2022-12-03T15:27:01.382Z,58.60
2022-12-03T15:29:32.345Z,52.25
2022-12-03T15:32:03.091Z,62.00
2022-12-03T15:34:32.832Z,57.43
2022-12-03T15:37:02.639Z,58.73
2022-12-03T15:39:33.282Z,60.23
2022-12-03T15:42:03.332Z,56.30
2022-12-03T15:44:33.084Z,60.27
2022-12-03T15:47:02.874Z,56.47
2022-12-03T15:49:32.678Z,84.67
2022-12-03T15:52:02.782Z,108.67
2022-12-03T15:54:32.559Z,125.60
2022-12-03T15:57:02.687Z,79.40
2022-12-03T15:59:32.451Z,65.07
2022-12-03T16:02:02.329Z,161.53
2022-12-03T16:04:32.385Z,71.85
2022-12-03T16:07:02.196Z,82.17
2022-12-03T16:09:32.256Z,59.75
2022-12-03T16:12:02.298Z,55.20
2022-12-03T16:14:32.188Z,56.30
2022-12-03T16:17:02.105Z,57.50
2022-12-03T16:19:31.886Z,55.93
2022-12-03T16:22:03.178Z,59.43
2022-12-03T16:24:32.990Z,57.38
2022-12-03T16:27:02.786Z,54.17
2022-12-03T16:29:32.530Z,57.80
2022-12-03T16:32:02.480Z,56.17
2022-12-03T16:34:32.530Z,59.98
2022-12-03T16:37:02.315Z,60.23
2022-12-03T16:39:33.741Z,58.10
2022-12-03T16:42:04.801Z,83.30
2022-12-03T16:44:36.150Z,274.27
2022-12-03T16:47:05.983Z,105.97
2022-12-03T16:49:36.078Z,64.80
2022-12-03T16:52:08.533Z,68.96
2022-12-03T16:54:38.426Z,66.57
2022-12-03T16:57:08.234Z,61.87
2022-12-03T16:59:38.356Z,58.48
2022-12-03T17:02:12.857Z,60.18
2022-12-03T17:04:42.747Z,62.33
2022-12-03T17:07:12.507Z,64.20
2022-12-03T17:09:42.351Z,65.23
2022-12-03T17:12:13.986Z,66.65
2022-12-03T17:14:43.724Z,61.40
2022-12-03T17:17:13.506Z,72.30
2022-12-03T17:19:43.259Z,69.17
2022-12-03T17:22:14.492Z,69.63
2022-12-03T17:24:45.405Z,66.00
2022-12-03T17:27:15.726Z,65.00
2022-12-03T17:29:45.468Z,65.17
2022-12-03T17:32:15.568Z,69.58
2022-12-03T17:34:45.626Z,68.55
2022-12-03T17:37:15.384Z,115.23
2022-12-03T17:39:45.429Z,80.32
2022-12-03T17:42:15.548Z,73.70
2022-12-03T17:44:45.288Z,78.87
2022-12-03T17:47:15.624Z,70.78
2022-12-03T17:49:45.371Z,76.93
2022-12-03T17:52:16.064Z,72.50
2022-12-03T17:55:10.036Z,76.80
2022-12-03T17:57:17.314Z,76.67
2022-12-03T17:59:47.374Z,72.03
2022-12-03T18:02:19.441Z,67.80
2022-12-03T18:04:49.429Z,70.00
2022-12-03T18:07:19.171Z,74.40
2022-12-03T18:09:48.920Z,76.10
2022-12-03T18:12:18.685Z,75.50
2022-12-03T18:14:48.724Z,71.90
2022-12-03T18:17:18.821Z,81.32
2022-12-03T18:19:48.639Z,69.60
2022-12-03T18:22:18.510Z,73.23
2022-12-03T18:24:51.924Z,76.70
2022-12-03T18:27:22.161Z,70.83
2022-12-03T18:29:52.294Z,71.27
2022-12-03T18:32:30.126Z,65.93
2022-12-03T18:34:54.134Z,73.30
2022-12-03T18:37:27.255Z,73.35
2022-12-03T18:39:58.593Z,69.07
2022-12-03T18:42:28.509Z,76.33
2022-12-03T18:44:58.432Z,91.67
2022-12-03T18:47:29.792Z,89.55
2022-12-03T18:49:59.758Z,120.43
2022-12-03T18:52:29.225Z,78.93
2022-12-03T18:54:59.305Z,86.90
2022-12-03T18:57:29.051Z,73.00
2022-12-03T18:59:58.925Z,84.60
2022-12-03T19:05:00.044Z,90.85
2022-12-03T19:07:29.814Z,119.63
2022-12-03T19:10:00.014Z,105.55
2022-12-03T19:12:29.834Z,88.78
2022-12-03T19:14:59.886Z,99.60
2022-12-03T19:17:29.794Z,82.20
2022-12-03T19:19:59.873Z,86.47
2022-12-03T19:22:30.035Z,103.78
2022-12-03T19:24:59.793Z,87.13
2022-12-03T19:27:31.702Z,86.67
2022-12-03T19:30:01.419Z,87.20
2022-12-03T19:32:30.963Z,86.80
2022-12-03T19:35:02.375Z,92.67
2022-12-03T19:37:35.250Z,87.37
2022-12-03T19:40:10.181Z,87.75
2022-12-03T19:42:40.788Z,93.43
2022-12-03T19:45:10.624Z,91.30
2022-12-03T19:47:40.442Z,89.53
2022-12-03T19:50:11.818Z,87.03
2022-12-03T19:52:41.578Z,83.60
2022-12-03T19:55:11.031Z,92.53
2022-12-03T19:57:41.062Z,94.67
2022-12-03T20:00:13.508Z,85.88
2022-12-03T20:02:43.503Z,81.40
2022-12-03T20:05:13.223Z,79.93
2022-12-03T20:07:43.047Z,84.60
2022-12-03T20:10:14.449Z,81.02
2022-12-03T20:12:44.273Z,83.70
2022-12-03T20:15:15.004Z,83.72
2022-12-03T20:17:44.516Z,83.20
2022-12-03T20:20:14.124Z,89.22
2022-12-03T20:22:43.907Z,81.23
2022-12-03T20:25:14.127Z,81.23
2022-12-03T20:27:43.889Z,76.60
2022-12-03T20:30:15.638Z,76.28
2022-12-03T20:32:45.780Z,83.40
2022-12-03T20:35:15.221Z,76.30
2022-12-03T20:37:44.657Z,86.25
2022-12-03T20:40:15.547Z,81.15
2022-12-03T20:42:49.623Z,77.87
2022-12-03T20:45:19.539Z,84.07
2022-12-03T20:47:49.284Z,90.53
2022-12-03T20:50:18.854Z,86.50
2022-12-03T20:53:09.702Z,89.47
2022-12-03T20:55:19.744Z,84.03
2022-12-03T20:57:50.253Z,78.97
2022-12-03T21:00:20.362Z,77.90
2022-12-03T21:02:50.207Z,75.60
2022-12-03T21:05:19.980Z,75.33
2022-12-03T21:07:51.771Z,81.85
2022-12-03T21:10:36.418Z,86.42
2022-12-03T21:13:06.464Z,90.40
2022-12-03T21:15:36.236Z,82.50
2022-12-03T21:18:06.100Z,82.97
2022-12-03T21:20:44.022Z,84.90
2022-12-03T21:23:14.501Z,76.93
2022-12-03T21:25:44.309Z,85.30
2022-12-03T21:28:14.076Z,86.70
2022-12-03T21:30:44.215Z,85.07
2022-12-03T21:33:14.310Z,87.80
2022-12-03T21:35:44.086Z,78.27
2022-12-03T21:38:14.593Z,85.35
2022-12-03T21:40:44.348Z,83.57
2022-12-03T21:43:14.122Z,83.03
2022-12-03T21:45:44.578Z,86.02
2022-12-03T21:48:14.840Z,88.67
2022-12-03T21:50:45.505Z,78.10
2022-12-03T21:53:15.540Z,82.90
2022-12-03T21:55:45.289Z,87.60
2022-12-03T21:58:16.721Z,78.33
2022-12-03T22:00:46.808Z,84.58
2022-12-03T22:03:16.659Z,86.23
2022-12-03T22:05:46.445Z,82.23
2022-12-03T22:08:17.353Z,81.22
2022-12-03T22:10:47.130Z,86.27
2022-12-03T22:13:16.890Z,84.93
2022-12-03T22:15:46.504Z,75.40
2022-12-03T22:18:16.585Z,89.45
2022-12-03T22:20:46.366Z,83.27
2022-12-03T22:23:16.200Z,89.13
2022-12-03T22:25:46.258Z,72.75
2022-12-03T22:28:16.942Z,83.50
2022-12-03T22:30:47.089Z,85.12
2022-12-03T22:33:16.921Z,84.87
2022-12-03T22:36:01.235Z,87.73
2022-12-03T22:38:32.431Z,92.67
2022-12-03T22:41:07.330Z,84.57
2022-12-03T22:43:37.568Z,83.40
2022-12-03T22:46:10.482Z,86.37
2022-12-03T22:48:41.740Z,87.85
2022-12-03T22:51:14.253Z,83.47
2022-12-03T22:53:44.081Z,89.50
2022-12-03T22:56:17.265Z,82.78
2022-12-03T22:58:47.098Z,89.80
2022-12-03T23:01:37.784Z,85.93
2022-12-03T23:04:09.117Z,84.23
2022-12-03T23:06:39.587Z,85.40
2022-12-03T23:09:09.362Z,91.70
2022-12-03T23:11:39.232Z,83.70
2022-12-03T23:14:11.083Z,76.70
2022-12-03T23:16:41.484Z,82.42
2022-12-03T23:19:11.552Z,80.20
2022-12-03T23:21:41.364Z,87.17
2022-12-03T23:24:13.609Z,90.82
2022-12-03T23:26:43.519Z,87.10
2022-12-03T23:29:13.586Z,89.47
2022-12-03T23:31:43.408Z,89.97
2022-12-03T23:34:14.468Z,90.30
2022-12-03T23:36:44.311Z,87.83
2022-12-03T23:39:14.377Z,87.82
2022-12-03T23:41:44.266Z,79.77
2022-12-03T23:44:15.929Z,84.95
2022-12-03T23:46:45.799Z,90.03
2022-12-03T23:49:15.899Z,86.78
2022-12-03T23:51:45.978Z,91.08
2022-12-03T23:54:15.702Z,84.23
2022-12-03T23:56:45.837Z,88.63
2022-12-03T23:59:15.879Z,83.90
